Time;durP1;ratioP1;P1;durP2;ratioP2;P2;SDS_P1;SDS_P2;PMS_P1;PMS_P2;Temp;Humidity;BMP_temperature;BMP_pressure;BME280_temperature;BME280_humidity;BME280_pressure;Samples;Min_cycle;Max_cycle;Signal;HPM_P1;HPM_P2
2022/04/26 03:36:08;;;;;;;34.63;25.17;;;8.50;99.90;;;;;;5111350;28;20571;-52
2022/04/26 03:38:36;;;;;;;39.17;27.47;;;8.50;99.90;;;;;;5111620;28;20188;-52
2022/04/26 03:41:04;;;;;;;40.47;28.87;;;8.50;99.90;;;;;;5111461;28;20233;-51
2022/04/26 03:43:32;;;;;;;40.23;26.47;;;8.50;99.90;;;;;;5110826;28;20256;-51
2022/04/26 03:46:00;;;;;;;41.80;29.50;;;8.60;99.90;;;;;;5111135;28;20219;-51
2022/04/26 03:48:29;;;;;;;42.43;28.40;;;8.60;99.90;;;;;;5111252;28;20316;-51
2022/04/26 03:50:59;;;;;;;37.87;28.33;;;8.60;99.90;;;;;;5106473;28;20196;-52
2022/04/26 03:53:28;;;;;;;45.07;29.43;;;8.60;99.90;;;;;;5089882;28;20653;-52
2022/04/26 03:55:56;;;;;;;36.60;27.07;;;8.60;99.90;;;;;;5090560;28;20224;-51
2022/04/26 03:58:25;;;;;;;39.17;27.63;;;8.60;99.90;;;;;;5090367;28;20204;-52
2022/04/26 04:00:54;;;;;;;38.80;27.47;;;8.60;99.90;;;;;;5090189;28;20196;-51
2022/04/26 04:03:28;;;;;;;42.53;28.33;;;8.60;99.90;;;;;;5092465;28;20673;-52
2022/04/26 04:05:56;;;;;;;38.70;26.60;;;8.70;99.90;;;;;;5095912;28;20701;-52
2022/04/26 04:08:25;;;;;;;36.37;25.00;;;8.70;99.90;;;;;;5095664;28;20227;-52
2022/04/26 04:10:53;;;;;;;35.80;25.57;;;8.70;99.90;;;;;;5093441;28;20253;-52
2022/04/26 04:13:22;;;;;;;36.47;26.00;;;8.80;99.90;;;;;;5089767;28;20207;-52
2022/04/26 04:15:50;;;;;;;37.17;25.60;;;8.80;99.90;;;;;;5092341;28;20691;-52
2022/04/26 04:21:06;;;;;;;33.17;24.17;;;8.80;99.90;;;;;;5065746;28;20200;-52
2022/04/26 04:23:38;;;;;;;37.17;25.27;;;8.90;99.90;;;;;;5089944;28;20431;-52
2022/04/26 04:26:07;;;;;;;35.33;24.47;;;8.90;99.90;;;;;;5096983;28;20829;-52
2022/04/26 04:28:36;;;;;;;32.70;23.77;;;8.90;99.90;;;;;;5110265;28;20228;-52
2022/04/26 04:31:04;;;;;;;37.07;24.93;;;8.80;99.90;;;;;;5110116;28;20208;-52
2022/04/26 04:33:33;;;;;;;36.77;24.53;;;8.80;99.90;;;;;;5108478;28;20215;-52
2022/04/26 04:36:01;;;;;;;35.97;24.83;;;8.80;99.90;;;;;;5108899;28;20231;-52
2022/04/26 04:38:29;;;;;;;37.87;25.33;;;8.70;99.90;;;;;;5111440;28;20203;-53
2022/04/26 04:40:59;;;;;;;36.03;24.90;;;8.80;99.90;;;;;;5113979;27;20203;-52
2022/04/26 04:43:27;;;;;;;38.03;25.97;;;8.80;99.90;;;;;;5113290;28;20200;-52
2022/04/26 04:45:55;;;;;;;38.50;25.53;;;8.80;99.90;;;;;;5113942;28;20646;-52
2022/04/26 04:48:23;;;;;;;36.93;26.20;;;8.80;99.90;;;;;;5113583;28;20239;-51
2022/04/26 04:50:52;;;;;;;39.40;26.43;;;8.80;99.90;;;;;;5111231;28;20260;-51
2022/04/26 04:53:20;;;;;;;39.37;26.87;;;8.70;99.90;;;;;;5113965;28;20728;-52
2022/04/26 04:55:48;;;;;;;41.10;27.70;;;8.70;99.90;;;;;;5104527;28;20228;-52
2022/04/26 04:58:18;;;;;;;42.23;27.50;;;8.70;99.90;;;;;;5109716;28;20215;-52
2022/04/26 05:00:46;;;;;;;41.57;27.33;;;8.70;99.90;;;;;;5114215;28;20260;-51
2022/04/26 05:03:14;;;;;;;41.10;26.93;;;8.70;99.90;;;;;;5114004;28;20581;-52
2022/04/26 05:05:42;;;;;;;38.17;27.07;;;8.70;99.90;;;;;;5114016;28;20273;-51
2022/04/26 05:08:11;;;;;;;40.47;26.73;;;8.80;99.90;;;;;;5114517;28;20227;-51
2022/04/26 05:10:40;;;;;;;41.90;27.73;;;8.80;99.90;;;;;;5093523;28;20238;-52
2022/04/26 05:13:09;;;;;;;47.77;29.73;;;8.70;99.90;;;;;;5093654;28;20215;-52
2022/04/26 05:15:38;;;;;;;42.83;29.53;;;8.70;99.90;;;;;;5094053;28;20223;-52
2022/04/26 05:18:07;;;;;;;56.83;45.37;;;8.70;99.90;;;;;;5093276;28;20250;-52
2022/04/26 05:20:35;;;;;;;44.20;31.40;;;8.70;99.90;;;;;;5093594;28;20648;-52
2022/04/26 05:25:49;;;;;;;43.90;29.37;;;8.70;99.90;;;;;;5114074;28;20227;-51
2022/04/26 05:28:17;;;;;;;42.67;28.77;;;8.70;99.90;;;;;;5114022;27;20230;-51
2022/04/26 05:30:53;;;;;;;46.27;30.67;;;8.80;99.90;;;;;;5113958;28;20226;-52
2022/04/26 05:33:22;;;;;;;48.13;31.33;;;8.80;99.90;;;;;;5112595;28;20212;-52
2022/04/26 05:35:50;;;;;;;45.70;30.83;;;8.80;99.90;;;;;;5113748;28;20246;-52
2022/04/26 05:38:19;;;;;;;45.97;29.87;;;8.70;99.90;;;;;;5114125;28;20200;-52
2022/04/26 05:40:49;;;;;;;45.77;29.47;;;8.70;99.90;;;;;;5113415;28;20280;-52
2022/04/26 05:43:18;;;;;;;44.00;30.60;;;8.70;99.90;;;;;;5113348;28;20195;-53
2022/04/26 05:45:46;;;;;;;45.97;31.37;;;8.80;99.90;;;;;;5112805;28;20230;-52
2022/04/26 05:48:15;;;;;;;45.87;29.10;;;8.80;99.90;;;;;;5111814;28;20274;-52
2022/04/26 05:50:44;;;;;;;47.57;31.13;;;8.80;99.90;;;;;;5112251;28;20203;-52
2022/04/26 05:53:12;;;;;;;41.87;28.43;;;8.80;99.90;;;;;;5112992;27;20253;-49
2022/04/26 05:55:40;;;;;;;46.47;29.70;;;8.90;99.90;;;;;;5112963;28;20225;-50
2022/04/26 05:58:10;;;;;;;50.03;30.43;;;9.00;99.90;;;;;;5113501;28;20196;-50
2022/04/26 06:00:38;;;;;;;47.37;29.97;;;9.00;99.90;;;;;;5112834;28;20620;-50
2022/04/26 06:03:06;;;;;;;43.73;29.30;;;9.00;99.90;;;;;;5102342;27;20215;-50
2022/04/26 06:05:36;;;;;;;43.20;29.17;;;9.00;99.90;;;;;;5112149;27;20637;-50
2022/04/26 06:08:05;;;;;;;43.70;29.47;;;8.90;99.90;;;;;;5111671;28;20210;-50
2022/04/26 06:10:33;;;;;;;43.37;29.23;;;9.00;99.90;;;;;;5110424;28;20227;-53
2022/04/26 06:13:01;;;;;;;78.20;51.37;;;9.00;99.90;;;;;;5108790;28;20621;-52
2022/04/26 06:15:29;;;;;;;45.23;29.93;;;9.00;99.90;;;;;;5109597;28;20776;-53
2022/04/26 06:17:58;;;;;;;46.77;30.40;;;9.00;99.90;;;;;;5108849;28;20256;-54
2022/04/26 06:20:26;;;;;;;43.53;28.60;;;9.00;99.90;;;;;;5111759;28;20211;-52
2022/04/26 06:22:55;;;;;;;41.60;27.63;;;9.10;99.90;;;;;;5107241;28;20211;-52
2022/04/26 06:25:24;;;;;;;41.30;28.37;;;9.10;99.90;;;;;;5108513;28;20224;-52
2022/04/26 06:27:52;;;;;;;42.60;28.73;;;9.20;99.90;;;;;;5106504;28;20252;-51
2022/04/26 06:30:24;;;;;;;46.40;31.33;;;9.20;99.90;;;;;;5108278;28;20764;-52
2022/04/26 06:32:52;;;;;;;46.90;32.37;;;9.20;99.90;;;;;;5110445;28;20219;-52
2022/04/26 06:35:21;;;;;;;44.43;29.00;;;9.30;99.90;;;;;;5110406;28;20216;-52
2022/04/26 06:37:50;;;;;;;40.73;28.47;;;9.40;99.90;;;;;;5112109;28;20207;-52
2022/04/26 06:40:19;;;;;;;40.73;28.50;;;9.40;99.90;;;;;;5111553;28;20237;-53
2022/04/26 06:42:48;;;;;;;42.40;28.97;;;9.50;99.90;;;;;;5100158;27;20214;-52
2022/04/26 06:45:16;;;;;;;41.33;28.60;;;9.60;99.90;;;;;;5108893;28;20223;-52
2022/04/26 06:47:44;;;;;;;43.53;28.27;;;9.60;99.90;;;;;;5108870;28;20219;-52
2022/04/26 06:50:13;;;;;;;42.70;28.60;;;9.60;99.90;;;;;;5109504;28;20230;-52
2022/04/26 06:52:41;;;;;;;42.53;27.97;;;9.60;99.90;;;;;;5108975;28;20214;-52
2022/04/26 06:55:10;;;;;;;43.33;28.40;;;9.60;99.90;;;;;;5109230;27;20232;-52
2022/04/26 06:57:40;;;;;;;42.67;29.07;;;9.60;99.90;;;;;;5109562;28;20212;-52
2022/04/26 07:00:10;;;;;;;41.10;28.67;;;9.70;99.90;;;;;;5106699;28;20207;-51
2022/04/26 07:02:38;;;;;;;39.80;28.50;;;9.80;99.90;;;;;;5106566;28;20215;-51
2022/04/26 07:05:08;;;;;;;40.20;27.63;;;9.80;99.90;;;;;;5109218;28;20238;-52
2022/04/26 07:07:36;;;;;;;47.17;28.67;;;9.80;99.90;;;;;;5110002;28;20207;-52
2022/04/26 07:10:05;;;;;;;44.00;29.67;;;9.80;99.90;;;;;;5111302;28;20288;-51
2022/04/26 07:12:34;;;;;;;39.90;27.37;;;9.80;99.90;;;;;;5111024;28;20211;-52
2022/04/26 07:15:04;;;;;;;42.30;30.00;;;9.70;99.90;;;;;;5109785;28;20231;-52
2022/04/26 07:17:32;;;;;;;42.80;28.03;;;9.80;99.90;;;;;;5110860;28;20260;-52
2022/04/26 07:20:01;;;;;;;39.77;27.13;;;9.80;99.90;;;;;;5110844;28;20214;-52
2022/04/26 07:22:32;;;;;;;39.70;28.33;;;9.90;99.90;;;;;;5110651;28;20241;-52
2022/04/26 07:25:00;;;;;;;40.73;27.90;;;9.90;99.90;;;;;;5106311;28;20227;-52
2022/04/26 07:27:28;;;;;;;44.37;28.17;;;10.00;99.90;;;;;;5108363;28;20216;-52
2022/04/26 07:29:56;;;;;;;40.53;28.03;;;10.00;99.90;;;;;;5110895;28;20719;-52
2022/04/26 07:35:10;;;;;;;44.33;29.40;;;10.00;99.90;;;;;;5109865;28;20245;-52
2022/04/26 07:37:38;;;;;;;42.20;29.07;;;10.00;99.90;;;;;;5110883;28;20206;-52
2022/04/26 07:40:08;;;;;;;44.40;31.00;;;10.00;99.90;;;;;;5110566;28;20211;-52
2022/04/26 07:42:36;;;;;;;45.43;29.93;;;10.10;99.90;;;;;;5110597;28;20238;-51
2022/04/26 07:45:06;;;;;;;43.27;29.50;;;10.10;99.90;;;;;;5106511;28;20715;-52
2022/04/26 07:47:35;;;;;;;44.50;30.00;;;10.10;99.90;;;;;;5107055;28;20211;-51
2022/04/26 07:50:04;;;;;;;45.43;30.37;;;10.10;99.90;;;;;;5104576;28;20772;-52
2022/04/26 07:52:32;;;;;;;42.90;29.53;;;10.20;99.90;;;;;;5110598;27;20211;-51
2022/04/26 07:55:01;;;;;;;44.93;30.53;;;10.20;99.90;;;;;;5109601;28;20235;-52
2022/04/26 07:57:29;;;;;;;41.67;29.70;;;10.20;99.90;;;;;;5105383;28;20212;-52
2022/04/26 07:59:58;;;;;;;44.30;30.17;;;10.30;99.90;;;;;;5107611;28;20288;-53
2022/04/26 08:02:26;;;;;;;42.70;29.77;;;10.30;99.90;;;;;;5109257;28;20213;-52
2022/04/26 08:05:01;;;;;;;44.03;29.53;;;10.40;99.90;;;;;;5105862;28;20767;-51
2022/04/26 08:07:29;;;;;;;40.57;27.93;;;10.50;99.90;;;;;;5102609;28;20203;-52
2022/04/26 08:09:58;;;;;;;43.80;30.23;;;10.60;99.90;;;;;;5106570;28;20219;-51
2022/04/26 08:12:26;;;;;;;40.67;28.50;;;10.60;99.90;;;;;;5108786;28;20767;-52
2022/04/26 08:14:54;;;;;;;40.43;29.10;;;10.70;99.90;;;;;;5113812;28;20235;-52
2022/04/26 08:17:23;;;;;;;37.17;27.30;;;10.70;99.90;;;;;;5114125;28;20213;-52
2022/04/26 08:19:51;;;;;;;36.63;27.37;;;10.80;99.90;;;;;;5114349;28;20211;-51
2022/04/26 08:22:21;;;;;;;38.50;27.30;;;10.80;99.90;;;;;;5113937;28;20676;-51
2022/04/26 08:27:35;;;;;;;42.07;28.27;;;10.80;99.90;;;;;;5111722;28;20713;-52
2022/04/26 08:30:05;;;;;;;41.23;27.67;;;10.80;99.90;;;;;;5110977;28;20222;-52
2022/04/26 08:32:40;;;;;;;40.20;27.93;;;10.90;99.90;;;;;;5112824;28;20223;-52
2022/04/26 08:35:10;;;;;;;38.73;26.43;;;10.90;99.90;;;;;;5113118;28;20734;-52
2022/04/26 08:37:40;;;;;;;38.77;27.67;;;10.90;99.90;;;;;;5113807;28;20217;-52
2022/04/26 08:40:09;;;;;;;40.47;26.43;;;10.90;99.90;;;;;;5113206;28;20693;-51
2022/04/26 08:42:38;;;;;;;36.47;26.80;;;11.00;99.90;;;;;;5113264;28;20208;-52
2022/04/26 08:45:13;;;;;;;33.53;25.50;;;11.00;99.90;;;;;;5113773;28;20244;-52
2022/04/26 08:53:19;;;;;;;35.80;26.80;;;11.10;99.90;;;;;;5113095;28;20728;-52
2022/04/26 08:55:49;;;;;;;36.50;25.33;;;11.10;99.90;;;;;;5113253;28;20284;-52
2022/04/26 08:58:18;;;;;;;36.10;26.40;;;11.30;99.90;;;;;;5113269;28;20212;-52
2022/04/26 09:01:09;;;;;;;37.83;26.83;;;11.20;99.90;;;;;;5113050;28;20214;-52
2022/04/26 09:03:38;;;;;;;37.13;27.20;;;11.20;99.90;;;;;;5113625;27;20218;-52
2022/04/26 09:06:09;;;;;;;39.87;26.27;;;11.10;99.90;;;;;;5112959;28;20234;-53
2022/04/26 09:08:39;;;;;;;38.37;27.80;;;11.10;99.90;;;;;;5113610;28;20214;-52
2022/04/26 09:11:27;;;;;;;40.73;27.87;;;11.10;99.90;;;;;;5110057;28;20288;-52
2022/04/26 09:13:56;;;;;;;35.77;25.97;;;11.10;99.90;;;;;;5112757;28;20211;-52
2022/04/26 09:16:24;;;;;;;39.07;27.40;;;11.10;99.90;;;;;;5112632;28;20228;-52
2022/04/26 09:18:57;;;;;;;35.60;26.13;;;11.20;99.90;;;;;;5112831;28;20277;-52
2022/04/26 09:21:27;;;;;;;36.47;26.87;;;11.20;99.90;;;;;;5112877;28;20230;-52
2022/04/26 09:24:01;;;;;;;36.37;27.10;;;11.30;99.90;;;;;;5108538;28;20211;-52
2022/04/26 09:26:36;;;;;;;36.30;25.37;;;11.40;99.90;;;;;;5111025;28;20238;-52
2022/04/26 09:29:05;;;;;;;33.83;25.53;;;11.40;99.90;;;;;;5113317;28;20268;-52
2022/04/26 09:31:35;;;;;;;31.33;24.57;;;11.50;99.90;;;;;;5111515;28;20277;-52
2022/04/26 09:34:10;;;;;;;34.27;25.30;;;11.60;99.90;;;;;;5112320;28;20212;-52
2022/04/26 09:36:44;;;;;;;33.33;25.57;;;11.60;99.90;;;;;;5112381;28;20256;-53
2022/04/26 09:39:18;;;;;;;32.43;24.20;;;11.70;99.90;;;;;;5107159;28;20245;-51
2022/04/26 09:42:07;;;;;;;34.90;23.27;;;11.80;99.90;;;;;;5110883;28;20211;-52
2022/04/26 09:44:38;;;;;;;28.70;21.67;;;11.70;99.90;;;;;;5112146;28;20220;-52
2022/04/26 09:47:07;;;;;;;28.40;20.13;;;11.80;99.90;;;;;;5112488;28;20200;-52
2022/04/26 09:49:39;;;;;;;25.07;19.70;;;11.80;99.90;;;;;;5112593;28;20214;-52
2022/04/26 09:52:13;;;;;;;28.77;21.80;;;11.90;99.90;;;;;;5111237;28;20254;-52
2022/04/26 09:54:44;;;;;;;28.53;20.63;;;12.00;99.90;;;;;;5112330;28;20612;-53
2022/04/26 09:57:21;;;;;;;27.23;21.33;;;12.10;99.90;;;;;;5104080;28;20199;-52
2022/04/26 10:00:08;;;;;;;27.90;21.80;;;12.10;99.90;;;;;;5110143;28;20665;-52
2022/04/26 10:02:37;;;;;;;28.80;22.70;;;12.20;99.90;;;;;;5111794;28;20265;-53
2022/04/26 10:05:07;;;;;;;26.37;19.63;;;12.10;99.90;;;;;;5111883;28;20231;-52
2022/04/26 10:07:38;;;;;;;28.53;21.77;;;12.30;99.90;;;;;;5111589;28;20245;-52
2022/04/26 10:10:09;;;;;;;29.30;23.35;;;12.40;99.90;;;;;;5108667;28;20426;-52
2022/04/26 10:12:38;;;;;;;27.50;21.57;;;12.60;99.90;;;;;;5111124;28;20265;-52
2022/04/26 10:15:07;;;;;;;28.80;22.23;;;12.60;99.90;;;;;;5112271;28;20232;-52
2022/04/26 10:17:36;;;;;;;30.60;21.67;;;12.50;99.90;;;;;;5110838;28;20272;-53
2022/04/26 10:20:05;;;;;;;29.30;22.17;;;12.50;99.90;;;;;;5111691;28;20212;-52
2022/04/26 10:22:57;;;;;;;28.03;21.67;;;12.50;99.90;;;;;;5110718;28;20680;-52
2022/04/26 10:25:27;;;;;;;27.80;22.03;;;12.70;99.90;;;;;;5111808;28;20228;-52
2022/04/26 10:28:23;;;;;;;30.73;23.60;;;12.70;99.90;;;;;;5111699;28;20214;-52
2022/04/26 10:30:53;;;;;;;29.27;23.30;;;12.70;99.90;;;;;;5109578;28;20206;-52
2022/04/26 10:33:38;;;;;;;31.47;24.30;;;12.70;99.90;;;;;;5110287;28;20590;-52
2022/04/26 10:36:35;;;;;;;28.30;22.83;;;12.80;99.90;;;;;;5111110;28;20619;-52
2022/04/26 10:39:32;;;;;;;28.77;22.23;;;12.80;99.90;;;;;;5111203;28;20204;-51
2022/04/26 10:42:07;;;;;;;32.17;24.23;;;13.00;99.90;;;;;;5110171;28;20253;-51
2022/04/26 10:44:45;;;;;;;30.20;22.90;;;13.00;99.90;;;;;;5110880;28;20650;-51
2022/04/26 10:47:39;;;;;;;31.10;22.87;;;13.10;99.90;;;;;;5106847;28;20260;-52
2022/04/26 10:50:09;;;;;;;32.80;23.43;;;13.10;99.90;;;;;;5108595;28;20343;-52
2022/04/26 10:52:47;;;;;;;40.97;27.37;;;13.10;99.90;;;;;;5109714;28;20220;-51
2022/04/26 10:55:18;;;;;;;31.00;24.30;;;13.10;99.90;;;;;;5109441;28;20386;-52
2022/04/26 10:57:51;;;;;;;26.67;20.30;;;13.10;99.90;;;;;;5110777;28;20216;-51
2022/04/26 11:00:27;;;;;;;27.00;20.90;;;13.20;99.90;;;;;;5111222;28;20215;-52
2022/04/26 11:03:02;;;;;;;22.27;18.53;;;13.10;99.90;;;;;;5110910;27;20604;-52
2022/04/26 11:05:34;;;;;;;21.70;18.47;;;12.90;99.90;;;;;;5110802;28;20233;-53
2022/04/26 11:08:05;;;;;;;23.10;18.10;;;13.00;99.90;;;;;;5109211;28;20225;-52
2022/04/26 11:13:32;;;;;;;25.27;18.47;;;13.00;99.90;;;;;;5110420;28;20227;-53
2022/04/26 11:16:12;;;;;;;22.23;18.23;;;13.00;99.90;;;;;;5110353;28;20235;-52
2022/04/26 11:18:42;;;;;;;25.13;18.07;;;13.00;99.90;;;;;;5111285;28;20211;-53
2022/04/26 11:21:13;;;;;;;25.27;18.57;;;12.90;99.90;;;;;;5110227;28;20553;-53
2022/04/26 11:29:31;;;;;;;17.00;14.53;;;13.00;99.90;;;;;;5110761;28;20200;-53
2022/04/26 11:32:00;;;;;;;17.17;13.80;;;12.90;99.90;;;;;;5110324;28;20231;-52
2022/04/26 11:34:49;;;;;;;17.20;13.70;;;12.90;99.90;;;;;;5109536;28;20706;-52
2022/04/26 11:37:18;;;;;;;19.77;15.60;;;12.90;99.90;;;;;;5111110;28;20227;-52
2022/04/26 11:39:46;;;;;;;19.83;14.43;;;12.90;99.90;;;;;;5106804;28;20207;-52
2022/04/26 11:42:16;;;;;;;20.33;14.57;;;12.90;99.90;;;;;;5108858;28;20294;-52
2022/04/26 11:45:01;;;;;;;18.13;13.70;;;13.00;99.90;;;;;;5110348;28;20241;-50
2022/04/26 11:47:48;;;;;;;17.33;13.87;;;13.10;99.90;;;;;;5108112;28;20294;-52
2022/04/26 11:50:24;;;;;;;20.07;14.47;;;13.10;99.90;;;;;;5110281;28;20215;-53
2022/04/26 11:52:53;;;;;;;19.27;15.13;;;13.20;99.90;;;;;;5109539;28;20231;-51
2022/04/26 11:55:28;;;;;;;18.70;14.40;;;13.20;99.90;;;;;;5110494;28;20251;-52
2022/04/26 11:58:07;;;;;;;17.20;14.30;;;13.20;99.90;;;;;;5110288;28;20260;-52
2022/04/26 12:00:49;;;;;;;20.00;16.13;;;13.20;99.90;;;;;;5103318;28;20203;-51
2022/04/26 12:03:18;;;;;;;22.17;16.33;;;13.20;99.90;;;;;;5110238;28;20245;-49
2022/04/26 12:05:50;;;;;;;16.27;12.97;;;13.30;99.90;;;;;;5110085;28;20346;-52
2022/04/26 12:08:19;;;;;;;16.23;13.90;;;13.30;99.90;;;;;;5110007;28;20268;-51
2022/04/26 12:10:48;;;;;;;17.00;13.33;;;13.30;99.90;;;;;;5109504;28;20207;-51
2022/04/26 12:13:31;;;;;;;14.53;12.97;;;13.30;99.90;;;;;;5109490;28;20218;-52
2022/04/26 12:16:17;;;;;;;16.00;13.77;;;13.20;99.90;;;;;;5109866;28;20708;-51
2022/04/26 12:18:54;;;;;;;16.63;14.07;;;13.40;99.90;;;;;;5110203;28;20253;-51
2022/04/26 12:21:23;;;;;;;16.23;13.67;;;13.40;99.90;;;;;;5107640;28;20269;-51
2022/04/26 12:24:10;;;;;;;16.30;13.27;;;13.40;99.90;;;;;;5109622;28;20207;-51
2022/04/26 12:26:50;;;;;;;18.17;14.03;;;13.40;99.90;;;;;;5110098;28;20204;-51
2022/04/26 12:29:19;;;;;;;17.10;14.80;;;13.40;99.90;;;;;;5110525;28;20199;-52
2022/04/26 12:31:49;;;;;;;17.63;14.20;;;13.40;99.90;;;;;;5108837;28;20234;-51
2022/04/26 12:34:19;;;;;;;16.40;14.43;;;13.50;99.90;;;;;;5110279;28;20216;-52
2022/04/26 12:36:59;;;;;;;16.80;14.03;;;13.50;99.90;;;;;;5109551;28;20214;-52
2022/04/26 12:39:30;;;;;;;18.43;14.97;;;13.60;99.90;;;;;;5109580;28;20203;-51
2022/04/26 12:41:59;;;;;;;19.83;16.13;;;13.50;99.90;;;;;;5105921;28;20216;-50
2022/04/26 12:44:28;;;;;;;21.87;16.03;;;13.50;99.90;;;;;;5109489;28;20691;-51
2022/04/26 12:52:53;;;;;;;20.07;15.77;;;13.20;99.90;;;;;;5109498;28;20230;-52
2022/04/26 12:55:26;;;;;;;21.67;16.63;;;13.10;99.90;;;;;;5109852;28;20231;-51
2022/04/26 12:57:57;;;;;;;19.80;16.23;;;12.90;99.90;;;;;;5109675;28;20676;-52
2022/04/26 13:00:27;;;;;;;19.77;16.77;;;12.90;99.90;;;;;;5111713;28;20208;-51
2022/04/26 13:02:59;;;;;;;20.00;16.53;;;12.90;99.90;;;;;;5113089;28;20203;-52
2022/04/26 13:05:39;;;;;;;22.30;16.87;;;12.80;99.90;;;;;;5113765;28;20231;-52
2022/04/26 13:08:08;;;;;;;20.53;16.90;;;12.80;99.90;;;;;;5113695;28;20215;-51
2022/04/26 13:10:36;;;;;;;22.30;17.00;;;12.70;99.90;;;;;;5112457;28;20282;-52
2022/04/26 13:13:05;;;;;;;21.87;16.77;;;12.70;99.90;;;;;;5113212;28;20238;-51
2022/04/26 13:15:34;;;;;;;19.50;17.00;;;12.80;99.90;;;;;;5113060;28;20246;-50
2022/04/26 13:18:04;;;;;;;23.97;17.97;;;12.90;99.90;;;;;;5113419;28;20613;-51
2022/04/26 13:20:33;;;;;;;21.83;17.87;;;12.90;99.90;;;;;;5113367;28;20936;-52
2022/04/26 13:23:02;;;;;;;20.17;17.07;;;13.10;99.90;;;;;;5113016;28;20290;-52
2022/04/26 13:25:31;;;;;;;19.67;16.43;;;13.10;99.90;;;;;;5112910;28;20722;-51
2022/04/26 13:27:59;;;;;;;22.13;17.60;;;13.10;99.90;;;;;;5113562;28;20214;-51
2022/04/26 13:30:27;;;;;;;22.77;17.67;;;13.20;99.90;;;;;;5112740;28;20219;-52
2022/04/26 13:32:55;;;;;;;22.17;17.13;;;13.10;99.90;;;;;;5112820;28;20239;-51
2022/04/26 13:35:26;;;;;;;21.67;18.80;;;13.00;99.90;;;;;;5112675;28;20749;-51
2022/04/26 13:37:54;;;;;;;21.33;17.73;;;13.00;99.90;;;;;;5112958;28;20577;-51
2022/04/26 13:40:23;;;;;;;23.80;20.00;;;13.00;99.90;;;;;;5112727;28;20859;-52
2022/04/26 13:43:11;;;;;;;26.93;20.47;;;13.00;99.90;;;;;;5111525;28;20203;-51
2022/04/26 13:45:56;;;;;;;30.13;21.97;;;13.00;99.90;;;;;;5110311;28;20227;-52
2022/04/26 13:48:24;;;;;;;26.37;21.57;;;13.10;99.90;;;;;;5112795;28;20257;-51
2022/04/26 13:50:54;;;;;;;27.00;21.00;;;13.20;99.90;;;;;;5112364;28;20215;-50
2022/04/26 13:53:22;;;;;;;30.03;21.47;;;13.20;99.90;;;;;;5110221;28;20215;-52
2022/04/26 13:55:50;;;;;;;32.00;23.00;;;13.20;99.90;;;;;;5110708;28;20818;-50
2022/04/26 13:58:19;;;;;;;28.57;22.00;;;13.20;99.90;;;;;;5110864;28;20214;-52
2022/04/26 14:00:47;;;;;;;21.67;18.27;;;13.20;99.90;;;;;;5110528;28;20246;-51
2022/04/26 14:03:15;;;;;;;15.50;12.63;;;13.20;99.90;;;;;;5110483;28;20258;-52
2022/04/26 14:05:44;;;;;;;18.10;15.20;;;13.20;99.90;;;;;;5110983;28;20408;-51
2022/04/26 14:08:13;;;;;;;17.27;12.63;;;13.20;99.90;;;;;;5111622;28;20212;-52
2022/04/26 14:10:42;;;;;;;12.67;10.23;;;13.20;99.90;;;;;;5109443;28;20212;-51
2022/04/26 14:13:10;;;;;;;10.67;9.57;;;13.20;99.90;;;;;;5111779;28;20227;-52
2022/04/26 14:24:12;;;;;;;10.37;8.23;;;13.20;99.90;;;;;;5036872;28;20210;-52
2022/04/26 14:26:42;;;;;;;10.80;8.93;;;13.30;99.90;;;;;;5095102;28;20253;-51
2022/04/26 14:29:10;;;;;;;10.00;7.97;;;13.20;99.90;;;;;;5113353;28;20214;-52
2022/04/26 14:31:44;;;;;;;11.03;9.43;;;13.20;99.90;;;;;;5112200;28;20216;-52
2022/04/26 14:34:14;;;;;;;11.57;9.30;;;13.20;99.90;;;;;;5106315;28;20224;-52
2022/04/26 14:36:43;;;;;;;11.23;9.70;;;13.10;99.90;;;;;;5111750;28;20239;-51
2022/04/26 14:39:27;;;;;;;12.07;9.30;;;13.00;99.90;;;;;;5105230;28;20211;-51
2022/04/26 14:41:55;;;;;;;12.83;10.00;;;13.10;99.90;;;;;;5108939;28;20216;-51
2022/04/26 14:44:24;;;;;;;13.60;10.30;;;13.10;99.90;;;;;;5109148;28;20261;-52
2022/04/26 14:46:52;;;;;;;14.27;10.50;;;13.10;99.90;;;;;;5101709;28;20208;-51
2022/04/26 14:49:20;;;;;;;12.10;10.80;;;13.00;99.90;;;;;;5105221;28;20200;-50
2022/04/26 14:51:48;;;;;;;12.27;10.87;;;13.00;99.90;;;;;;5100156;28;20260;-52
2022/04/26 14:54:17;;;;;;;13.80;10.93;;;13.10;99.90;;;;;;5096381;28;20257;-50
2022/04/26 14:56:47;;;;;;;16.33;13.27;;;13.10;99.90;;;;;;5097901;28;20242;-52
2022/04/26 14:59:16;;;;;;;14.93;11.90;;;13.20;99.90;;;;;;5101557;28;20267;-51
2022/04/26 15:01:46;;;;;;;14.67;11.67;;;13.20;99.90;;;;;;5099190;28;20206;-52
2022/04/26 15:04:15;;;;;;;13.77;12.03;;;13.20;99.90;;;;;;5099906;28;20238;-52
2022/04/26 15:06:43;;;;;;;17.47;13.20;;;13.30;99.90;;;;;;5097012;28;20207;-52
2022/04/26 15:17:40;;;;;;;16.33;13.83;;;13.30;99.90;;;;;;5106244;28;20617;-51
2022/04/26 15:20:09;;;;;;;16.23;13.93;;;13.30;99.90;;;;;;5106358;28;20218;-51
2022/04/26 15:22:38;;;;;;;36.57;26.97;;;13.30;99.90;;;;;;5097438;28;20747;-53
2022/04/26 15:25:09;;;;;;;27.33;22.53;;;13.30;99.90;;;;;;5098510;28;20216;-51
2022/04/26 15:27:39;;;;;;;17.97;15.87;;;13.30;99.90;;;;;;5106403;28;20203;-52
2022/04/26 15:30:09;;;;;;;19.43;16.17;;;13.30;99.90;;;;;;5110458;28;20637;-51
2022/04/26 15:32:37;;;;;;;23.37;16.63;;;13.30;99.90;;;;;;5111174;27;20211;-52
2022/04/26 15:35:06;;;;;;;21.07;17.57;;;13.20;99.90;;;;;;5111886;27;20224;-51
2022/04/26 15:37:35;;;;;;;20.50;17.37;;;13.20;99.90;;;;;;5113860;27;20203;-52
2022/04/26 15:40:04;;;;;;;20.30;17.20;;;13.20;99.90;;;;;;5108366;27;20204;-51
2022/04/26 15:42:33;;;;;;;20.17;16.90;;;13.30;99.90;;;;;;5102668;28;20550;-52
2022/04/26 15:45:02;;;;;;;20.77;16.63;;;13.20;99.90;;;;;;5110790;28;20224;-52
2022/04/26 15:47:31;;;;;;;23.53;18.63;;;13.10;99.90;;;;;;5109195;28;20260;-53
2022/04/26 15:49:59;;;;;;;30.47;20.70;;;13.20;99.90;;;;;;5101565;28;20203;-52
2022/04/26 15:52:28;;;;;;;27.77;20.47;;;13.10;99.90;;;;;;5102273;27;20196;-52
2022/04/26 15:54:56;;;;;;;34.07;22.00;;;13.20;99.90;;;;;;5098072;27;20270;-52
2022/04/26 15:57:24;;;;;;;23.13;17.43;;;13.20;99.90;;;;;;5102331;28;20320;-52
2022/04/26 15:59:53;;;;;;;20.80;16.57;;;13.10;99.90;;;;;;5095795;27;20208;-52
2022/04/26 16:02:23;;;;;;;21.43;16.60;;;13.10;99.90;;;;;;5104127;28;20219;-53
2022/04/26 16:04:52;;;;;;;17.87;15.67;;;13.20;99.90;;;;;;5103569;28;20227;-52
2022/04/26 16:07:20;;;;;;;21.33;16.97;;;13.20;99.90;;;;;;5095441;28;20207;-53
2022/04/26 16:20:52;;;;;;;23.50;18.03;;;13.00;99.90;;;;;;5106935;28;20195;-52
2022/04/26 16:23:20;;;;;;;23.40;18.67;;;12.90;99.90;;;;;;5108480;28;20251;-52
2022/04/26 16:25:48;;;;;;;24.73;19.50;;;12.80;99.90;;;;;;5109765;28;20264;-52
2022/04/26 16:28:17;;;;;;;23.50;19.03;;;12.80;99.90;;;;;;5111275;28;20281;-52
2022/04/26 16:30:46;;;;;;;28.63;22.40;;;12.80;99.90;;;;;;5110614;28;20204;-52
2022/04/26 16:33:16;;;;;;;25.53;21.07;;;12.70;99.90;;;;;;5108004;28;20211;-51
2022/04/26 16:35:49;;;;;;;28.67;22.47;;;12.70;99.90;;;;;;5113300;28;20277;-51
2022/04/26 16:38:17;;;;;;;24.20;20.37;;;12.60;99.90;;;;;;5113053;28;20208;-51
2022/04/26 16:40:46;;;;;;;24.93;20.03;;;12.70;99.90;;;;;;5113824;28;20203;-52
2022/04/26 16:43:16;;;;;;;24.43;19.30;;;12.70;99.90;;;;;;5099049;28;20207;-52
2022/04/26 16:45:44;;;;;;;23.30;17.93;;;12.60;99.90;;;;;;5095456;28;20233;-52
2022/04/26 16:48:13;;;;;;;21.80;17.43;;;12.50;99.90;;;;;;5097861;28;20207;-52
2022/04/26 16:50:42;;;;;;;19.57;16.73;;;12.40;99.90;;;;;;5109882;28;20252;-52
2022/04/26 16:53:11;;;;;;;18.50;16.40;;;12.50;99.90;;;;;;5113979;28;20269;-51
2022/04/26 16:55:40;;;;;;;17.97;16.07;;;12.50;99.90;;;;;;5105149;28;20227;-51
2022/04/26 16:58:08;;;;;;;17.20;15.40;;;12.40;99.90;;;;;;5105609;27;20207;-51
2022/04/26 17:00:39;;;;;;;19.07;15.50;;;12.40;99.90;;;;;;5121196;27;20203;-52
2022/04/26 17:03:07;;;;;;;19.00;14.87;;;12.40;99.90;;;;;;5127583;27;20199;-51
2022/04/26 17:05:36;;;;;;;16.80;14.50;;;12.50;99.90;;;;;;5110587;28;20231;-51
2022/04/26 17:08:07;;;;;;;16.60;14.77;;;12.50;99.90;;;;;;5110338;28;20235;-52
2022/04/26 17:10:35;;;;;;;18.10;14.83;;;12.60;99.90;;;;;;5111095;28;20256;-51
2022/04/26 17:13:03;;;;;;;16.47;14.53;;;12.60;99.90;;;;;;5110686;28;20203;-51
2022/04/26 17:15:31;;;;;;;18.07;14.70;;;12.60;99.90;;;;;;5113435;28;20856;-51
2022/04/26 17:18:01;;;;;;;18.10;14.77;;;12.50;99.90;;;;;;5112510;28;20207;-51
2022/04/26 17:20:33;;;;;;;14.33;12.83;;;12.50;99.90;;;;;;5113455;28;20214;-51
2022/04/26 17:23:01;;;;;;;26.83;19.77;;;12.50;99.90;;;;;;5125154;27;20629;-52